San Fermin Berria — EBVW — position and weather

sailwx.info

Track history (hours):
 
Tides and Currents Weather Stations Pressure Air Temp Water Temp Dewpoint Dewpoint Depression Visibility Wind Speed Wind Dir Waves Ship Positions

San Fermin Berria

Last reported at 2017-Apr-25 20:06 UTC. Time now 2017-Apr-26 11:55 UTC.
Position N 43°35' W 001°49'.

Length 30 m.

Type: Fishing. MMSI: 224114650.

Date/timePositionNaut miles runAvg speedWind from/ knotsBaromVisibWave heightAir tempDewpointWater temp
2017-Apr-25 20:06N 43°35' W 001°49'2 8.4
2017-Apr-25 19:53N 43°33' W 001°48'3 8.7
2017-Apr-25 19:30N 43°29' W 001°48'4 8.9
2017-Apr-25 19:00N 43°25' W 001°47'2 3.9
2017-Apr-25 18:30N 43°23' W 001°47'0 0.0
2017-Apr-25 18:00N 43°23' W 001°47'0 0.2
2017-Apr-25 17:30N 43°23' W 001°47'0 0.2
2017-Apr-25 16:59N 43°23' W 001°48'0 0.0
2017-Apr-25 16:30N 43°23' W 001°48'0 0.0
2017-Apr-25 16:00N 43°23' W 001°48'0 0.0
2017-Apr-25 15:30N 43°23' W 001°48'3 5.8
2017-Apr-25 14:59N 43°26' W 001°48'4711.1
2017-Apr-25 10:44N 44°12' W 002°04'311.2
2017-Apr-25 10:30N 44°14' W 002°05'4 7.0
2017-Apr-25 09:59N 44°18' W 002°06'14 2.3
2017-Apr-25 03:51N 44°32' W 002°01'1 0.8
2017-Apr-25 02:19N 44°32' W 002°00'0 0.7
2017-Apr-25 02:00N 44°33' W 002°00'0 0.5
2017-Apr-25 01:31N 44°33' W 001°60'0 0.6
2017-Apr-25 00:55N 44°33' W 001°60'1 0.8
2017-Apr-24 23:55N 44°34' W 001°59'1 0.7
2017-Apr-24 23:07N 44°34' W 001°60'0 0.7
2017-Apr-24 22:59N 44°34' W 001°60'0 0.6
2017-Apr-24 22:30N 44°35' W 001°60'0 0.4
2017-Apr-24 22:00N 44°35' W 002°00'0 0.2
2017-Apr-24 21:30N 44°35' W 002°00'0 0.5
2017-Apr-24 21:00N 44°35' W 002°00'0 0.5
2017-Apr-24 20:30N 44°35' W 002°00'0 0.4
2017-Apr-24 20:00N 44°35' W 002°00'1 2.4
2017-Apr-24 19:31N 44°35' W 002°02'2 3.4
2017-Apr-24 19:00N 44°34' W 002°03'3 5.8
2017-Apr-24 18:30N 44°32' W 002°01'510.4
2017-Apr-24 18:00N 44°27' W 001°59'510.2
2017-Apr-24 17:31N 44°22' W 001°58'510.1
2017-Apr-24 17:00N 44°17' W 001°57'5 9.3
2017-Apr-24 16:30N 44°12' W 001°57'4 8.9
2017-Apr-24 16:00N 44°07' W 001°58'4 8.9
2017-Apr-24 15:30N 44°03' W 001°58'4 7.4
2017-Apr-24 15:00N 43°59' W 001°60'0 0.6
2017-Apr-24 14:30N 43°59' W 001°60'3 3.0
2017-Apr-24 13:30N 43°57' W 001°57'2 4.2
2017-Apr-24 13:01N 43°56' W 001°55'0 0.9
2017-Apr-24 12:31N 43°55' W 001°56'0 0.2
2017-Apr-24 12:01N 43°55' W 001°56'1 1.1
2017-Apr-24 11:30N 43°55' W 001°56'3 6.6
2017-Apr-24 10:59N 43°54' W 002°01'28 9.1
2017-Apr-24 07:55N 43°27' W 001°53'4 9.6
2017-Apr-24 07:30N 43°25' W 001°48'2 3.6
2017-Apr-24 07:00N 43°23' W 001°47'  
2017-Apr-21 14:41N 43°23' W 001°47'0 0.2
2017-Apr-21 14:30N 43°23' W 001°47'0 0.1
2017-Apr-21 13:30N 43°23' W 001°47'0 0.0
2017-Apr-21 13:00N 43°23' W 001°47'0 0.0
2017-Apr-21 12:24N 43°23' W 001°47'1 1.9
2017-Apr-21 12:00N 43°24' W 001°47'610.5
2017-Apr-21 11:26N 43°30' W 001°49'13 1.0
2017-Apr-20 22:13N 43°43' W 001°49'410.1
2017-Apr-20 21:47N 43°38' W 001°48'3 9.9
2017-Apr-20 21:30N 43°36' W 001°48'5 9.7
2017-Apr-20 21:00N 43°31' W 001°48'5 9.4
2017-Apr-20 20:30N 43°26' W 001°47'3 5.8
2017-Apr-20 20:00N 43°23' W 001°47'0 0.0
2017-Apr-19 06:32N 43°23' W 001°48'0 0.0
2017-Apr-19 06:30N 43°23' W 001°48'0 0.0
2017-Apr-19 06:00N 43°23' W 001°48'0 0.1
2017-Apr-19 05:30N 43°23' W 001°48'0 0.0
2017-Apr-19 05:00N 43°23' W 001°48'0 0.0
2017-Apr-19 04:30N 43°23' W 001°48'0 0.0
2017-Apr-19 04:00N 43°23' W 001°48'0 0.0
2017-Apr-19 03:30N 43°23' W 001°48'0 0.0
2017-Apr-19 03:00N 43°23' W 001°48'0 0.0
2017-Apr-19 02:30N 43°23' W 001°48'0 0.0
2017-Apr-19 02:00N 43°23' W 001°48'0 0.0
2017-Apr-19 01:30N 43°23' W 001°48'0 0.0
2017-Apr-19 01:00N 43°23' W 001°48'0 0.0
2017-Apr-19 00:30N 43°23' W 001°48'0 0.0
2017-Apr-19 00:00N 43°23' W 001°48'0 0.0
2017-Apr-18 23:30N 43°23' W 001°48'0 0.0
2017-Apr-18 23:00N 43°23' W 001°48'0 0.0
2017-Apr-18 22:30N 43°23' W 001°48'0 0.0
2017-Apr-18 22:00N 43°23' W 001°48'0 0.0
2017-Apr-18 21:30N 43°23' W 001°48'0 0.0
2017-Apr-18 21:00N 43°23' W 001°47'4 7.6
2017-Apr-18 20:29N 43°27' W 001°48'5 9.6
2017-Apr-18 20:00N 43°32' W 001°48'5 9.5
2017-Apr-18 19:30N 43°36' W 001°48'61 9.9
2017-Apr-18 13:19N 44°37' W 001°51'0 0.9
2017-Apr-18 13:00N 44°38' W 001°51'0 0.8
2017-Apr-18 12:30N 44°38' W 001°51'1 0.9
2017-Apr-18 11:47N 44°38' W 001°50'0 0.9
2017-Apr-18 11:28N 44°39' W 001°50'0 0.3
2017-Apr-18 10:53N 44°39' W 001°49'13 2.4
2017-Apr-18 05:22N 44°52' W 001°48'11 7.5
2017-Apr-18 03:52N 44°51' W 002°04'4 9.5
2017-Apr-18 03:30N 44°48' W 002°01'4 8.9
2017-Apr-18 03:00N 44°44' W 001°58'5 9.3
2017-Apr-18 02:28N 44°39' W 001°59'4 9.3
2017-Apr-18 02:00N 44°35' W 001°59'5 9.4
2017-Apr-18 01:30N 44°30' W 001°59'5 9.5
2017-Apr-18 01:01N 44°25' W 001°59'57 3.4
2017-Apr-17 08:20N 43°28' W 001°52'3 9.0
2017-Apr-17 07:59N 43°26' W 001°50'3 6.4
2017-Apr-17 07:30N 43°23' W 001°47'0 0.1
2017-Apr-17 07:00N 43°23' W 001°47'  
Track history (hours):
 
Tides and Currents Weather Stations Pressure Air Temp Water Temp Dewpoint Dewpoint Depression Visibility Wind Speed Wind Dir Waves Ship Positions

San Fermin Berria

Last reported at 2017-Apr-25 20:06 UTC. Time now 2017-Apr-26 11:55 UTC.
Position N 43°35' W 001°49'.

Length 30 m.

Type: Fishing. MMSI: 224114650.

Date/timePositionNaut miles runAvg speedWind from/ knotsBaromVisibWave heightAir tempDewpointWater temp
2017-Apr-25 20:06N 43°35' W 001°49'2 8.4
2017-Apr-25 19:53N 43°33' W 001°48'3 8.7
2017-Apr-25 19:30N 43°29' W 001°48'4 8.9
2017-Apr-25 19:00N 43°25' W 001°47'2 3.9
2017-Apr-25 18:30N 43°23' W 001°47'0 0.0
2017-Apr-25 18:00N 43°23' W 001°47'0 0.2
2017-Apr-25 17:30N 43°23' W 001°47'0 0.2
2017-Apr-25 16:59N 43°23' W 001°48'0 0.0
2017-Apr-25 16:30N 43°23' W 001°48'0 0.0
2017-Apr-25 16:00N 43°23' W 001°48'0 0.0
2017-Apr-25 15:30N 43°23' W 001°48'3 5.8
2017-Apr-25 14:59N 43°26' W 001°48'4711.1
2017-Apr-25 10:44N 44°12' W 002°04'311.2
2017-Apr-25 10:30N 44°14' W 002°05'4 7.0
2017-Apr-25 09:59N 44°18' W 002°06'14 2.3
2017-Apr-25 03:51N 44°32' W 002°01'1 0.8
2017-Apr-25 02:19N 44°32' W 002°00'0 0.7
2017-Apr-25 02:00N 44°33' W 002°00'0 0.5
2017-Apr-25 01:31N 44°33' W 001°60'0 0.6
2017-Apr-25 00:55N 44°33' W 001°60'1 0.8
2017-Apr-24 23:55N 44°34' W 001°59'1 0.7
2017-Apr-24 23:07N 44°34' W 001°60'0 0.7
2017-Apr-24 22:59N 44°34' W 001°60'0 0.6
2017-Apr-24 22:30N 44°35' W 001°60'0 0.4
2017-Apr-24 22:00N 44°35' W 002°00'0 0.2
2017-Apr-24 21:30N 44°35' W 002°00'0 0.5
2017-Apr-24 21:00N 44°35' W 002°00'0 0.5
2017-Apr-24 20:30N 44°35' W 002°00'0 0.4
2017-Apr-24 20:00N 44°35' W 002°00'1 2.4
2017-Apr-24 19:31N 44°35' W 002°02'2 3.4
2017-Apr-24 19:00N 44°34' W 002°03'3 5.8
2017-Apr-24 18:30N 44°32' W 002°01'510.4
2017-Apr-24 18:00N 44°27' W 001°59'510.2
2017-Apr-24 17:31N 44°22' W 001°58'510.1
2017-Apr-24 17:00N 44°17' W 001°57'5 9.3
2017-Apr-24 16:30N 44°12' W 001°57'4 8.9
2017-Apr-24 16:00N 44°07' W 001°58'4 8.9
2017-Apr-24 15:30N 44°03' W 001°58'4 7.4
2017-Apr-24 15:00N 43°59' W 001°60'0 0.6
2017-Apr-24 14:30N 43°59' W 001°60'3 3.0
2017-Apr-24 13:30N 43°57' W 001°57'2 4.2
2017-Apr-24 13:01N 43°56' W 001°55'0 0.9
2017-Apr-24 12:31N 43°55' W 001°56'0 0.2
2017-Apr-24 12:01N 43°55' W 001°56'1 1.1
2017-Apr-24 11:30N 43°55' W 001°56'3 6.6
2017-Apr-24 10:59N 43°54' W 002°01'28 9.1
2017-Apr-24 07:55N 43°27' W 001°53'4 9.6
2017-Apr-24 07:30N 43°25' W 001°48'2 3.6
2017-Apr-24 07:00N 43°23' W 001°47'  
2017-Apr-21 14:41N 43°23' W 001°47'0 0.2
2017-Apr-21 14:30N 43°23' W 001°47'0 0.1
2017-Apr-21 13:30N 43°23' W 001°47'0 0.0
2017-Apr-21 13:00N 43°23' W 001°47'0 0.0
2017-Apr-21 12:24N 43°23' W 001°47'1 1.9
2017-Apr-21 12:00N 43°24' W 001°47'610.5
2017-Apr-21 11:26N 43°30' W 001°49'13 1.0
2017-Apr-20 22:13N 43°43' W 001°49'410.1
2017-Apr-20 21:47N 43°38' W 001°48'3 9.9
2017-Apr-20 21:30N 43°36' W 001°48'5 9.7
2017-Apr-20 21:00N 43°31' W 001°48'5 9.4
2017-Apr-20 20:30N 43°26' W 001°47'3 5.8
2017-Apr-20 20:00N 43°23' W 001°47'0 0.0
2017-Apr-19 06:32N 43°23' W 001°48'0 0.0
2017-Apr-19 06:30N 43°23' W 001°48'0 0.0
2017-Apr-19 06:00N 43°23' W 001°48'0 0.1
2017-Apr-19 05:30N 43°23' W 001°48'0 0.0
2017-Apr-19 05:00N 43°23' W 001°48'0 0.0
2017-Apr-19 04:30N 43°23' W 001°48'0 0.0
2017-Apr-19 04:00N 43°23' W 001°48'0 0.0
2017-Apr-19 03:30N 43°23' W 001°48'0 0.0
2017-Apr-19 03:00N 43°23' W 001°48'0 0.0
2017-Apr-19 02:30N 43°23' W 001°48'0 0.0
2017-Apr-19 02:00N 43°23' W 001°48'0 0.0
2017-Apr-19 01:30N 43°23' W 001°48'0 0.0
2017-Apr-19 01:00N 43°23' W 001°48'0 0.0
2017-Apr-19 00:30N 43°23' W 001°48'0 0.0
2017-Apr-19 00:00N 43°23' W 001°48'0 0.0
2017-Apr-18 23:30N 43°23' W 001°48'0 0.0
2017-Apr-18 23:00N 43°23' W 001°48'0 0.0
2017-Apr-18 22:30N 43°23' W 001°48'0 0.0
2017-Apr-18 22:00N 43°23' W 001°48'0 0.0
2017-Apr-18 21:30N 43°23' W 001°48'0 0.0
2017-Apr-18 21:00N 43°23' W 001°47'4 7.6
2017-Apr-18 20:29N 43°27' W 001°48'5 9.6
2017-Apr-18 20:00N 43°32' W 001°48'5 9.5
2017-Apr-18 19:30N 43°36' W 001°48'61 9.9
2017-Apr-18 13:19N 44°37' W 001°51'0 0.9
2017-Apr-18 13:00N 44°38' W 001°51'0 0.8
2017-Apr-18 12:30N 44°38' W 001°51'1 0.9
2017-Apr-18 11:47N 44°38' W 001°50'0 0.9
2017-Apr-18 11:28N 44°39' W 001°50'0 0.3
2017-Apr-18 10:53N 44°39' W 001°49'13 2.4
2017-Apr-18 05:22N 44°52' W 001°48'11 7.5
2017-Apr-18 03:52N 44°51' W 002°04'4 9.5
2017-Apr-18 03:30N 44°48' W 002°01'4 8.9
2017-Apr-18 03:00N 44°44' W 001°58'5 9.3
2017-Apr-18 02:28N 44°39' W 001°59'4 9.3
2017-Apr-18 02:00N 44°35' W 001°59'5 9.4
2017-Apr-18 01:30N 44°30' W 001°59'5 9.5
2017-Apr-18 01:01N 44°25' W 001°59'57 3.4
2017-Apr-17 08:20N 43°28' W 001°52'3 9.0
2017-Apr-17 07:59N 43°26' W 001°50'3 6.4
2017-Apr-17 07:30N 43°23' W 001°47'0 0.1
2017-Apr-17 07:00N 43°23' W 001°47'  

Dump ship's entire track history